sensor_id;sensor_type;location;lat;lon;timestamp;P1;durP1;ratioP1;P2;durP2;ratioP2
12780;SDS011;6454;43.304;24.344;2024-02-26T00:02:15;7.50;;;4.30;;
12780;SDS011;6454;43.304;24.344;2024-02-26T00:04:41;6.22;;;3.50;;
12780;SDS011;6454;43.304;24.344;2024-02-26T00:07:06;5.82;;;3.50;;
12780;SDS011;6454;43.304;24.344;2024-02-26T00:09:32;9.18;;;3.40;;
12780;SDS011;6454;43.304;24.344;2024-02-26T00:12:01;5.18;;;3.85;;
12780;SDS011;6454;43.304;24.344;2024-02-26T00:14:28;5.00;;;3.33;;
12780;SDS011;6454;43.304;24.344;2024-02-26T00:16:54;5.25;;;3.50;;
12780;SDS011;6454;43.304;24.344;2024-02-26T00:19:20;7.03;;;3.55;;
12780;SDS011;6454;43.304;24.344;2024-02-26T00:21:45;7.05;;;3.88;;
12780;SDS011;6454;43.304;24.344;2024-02-26T00:24:11;5.15;;;3.40;;
12780;SDS011;6454;43.304;24.344;2024-02-26T00:26:36;6.70;;;3.78;;
12780;SDS011;6454;43.304;24.344;2024-02-26T00:29:02;7.72;;;3.83;;
12780;SDS011;6454;43.304;24.344;2024-02-26T00:31:27;7.18;;;4.03;;
12780;SDS011;6454;43.304;24.344;2024-02-26T00:33:52;6.38;;;3.80;;
12780;SDS011;6454;43.304;24.344;2024-02-26T00:36:18;6.30;;;3.80;;
12780;SDS011;6454;43.304;24.344;2024-02-26T00:38:44;4.45;;;3.38;;
12780;SDS011;6454;43.304;24.344;2024-02-26T00:41:11;5.70;;;3.38;;
12780;SDS011;6454;43.304;24.344;2024-02-26T00:43:36;4.88;;;3.22;;
12780;SDS011;6454;43.304;24.344;2024-02-26T00:46:05;5.28;;;3.42;;
12780;SDS011;6454;43.304;24.344;2024-02-26T00:48:30;7.40;;;4.00;;
12780;SDS011;6454;43.304;24.344;2024-02-26T00:50:56;5.60;;;3.85;;
12780;SDS011;6454;43.304;24.344;2024-02-26T00:53:21;6.10;;;3.92;;
12780;SDS011;6454;43.304;24.344;2024-02-26T00:55:47;5.45;;;3.80;;
12780;SDS011;6454;43.304;24.344;2024-02-26T00:58:12;6.45;;;3.42;;
12780;SDS011;6454;43.304;24.344;2024-02-26T01:00:38;4.88;;;3.60;;
12780;SDS011;6454;43.304;24.344;2024-02-26T01:03:03;5.70;;;3.70;;
12780;SDS011;6454;43.304;24.344;2024-02-26T01:05:29;7.10;;;4.05;;
12780;SDS011;6454;43.304;24.344;2024-02-26T01:07:55;6.15;;;4.38;;
12780;SDS011;6454;43.304;24.344;2024-02-26T01:10:20;6.22;;;4.22;;
12780;SDS011;6454;43.304;24.344;2024-02-26T01:12:46;5.88;;;3.90;;
12780;SDS011;6454;43.304;24.344;2024-02-26T01:15:12;7.25;;;4.32;;
12780;SDS011;6454;43.304;24.344;2024-02-26T01:17:38;11.35;;;4.43;;
12780;SDS011;6454;43.304;24.344;2024-02-26T01:20:04;5.43;;;3.70;;
12780;SDS011;6454;43.304;24.344;2024-02-26T01:22:30;8.68;;;4.28;;
12780;SDS011;6454;43.304;24.344;2024-02-26T01:24:55;7.95;;;4.60;;
12780;SDS011;6454;43.304;24.344;2024-02-26T01:27:22;9.93;;;4.22;;
12780;SDS011;6454;43.304;24.344;2024-02-26T01:29:51;7.90;;;4.43;;
12780;SDS011;6454;43.304;24.344;2024-02-26T01:32:17;5.20;;;3.80;;
12780;SDS011;6454;43.304;24.344;2024-02-26T01:34:43;7.68;;;4.30;;
12780;SDS011;6454;43.304;24.344;2024-02-26T01:37:08;6.40;;;4.28;;
12780;SDS011;6454;43.304;24.344;2024-02-26T01:39:33;7.13;;;4.15;;
12780;SDS011;6454;43.304;24.344;2024-02-26T01:41:59;5.47;;;4.07;;
12780;SDS011;6454;43.304;24.344;2024-02-26T01:44:26;5.93;;;4.28;;
12780;SDS011;6454;43.304;24.344;2024-02-26T01:46:52;10.30;;;4.25;;
12780;SDS011;6454;43.304;24.344;2024-02-26T01:49:18;7.30;;;4.57;;
12780;SDS011;6454;43.304;24.344;2024-02-26T01:51:44;6.68;;;4.30;;
12780;SDS011;6454;43.304;24.344;2024-02-26T01:54:10;7.60;;;4.57;;
12780;SDS011;6454;43.304;24.344;2024-02-26T01:56:37;8.00;;;4.95;;
12780;SDS011;6454;43.304;24.344;2024-02-26T01:59:05;6.75;;;4.38;;
12780;SDS011;6454;43.304;24.344;2024-02-26T02:01:31;6.63;;;4.22;;
12780;SDS011;6454;43.304;24.344;2024-02-26T02:03:57;6.32;;;4.22;;
12780;SDS011;6454;43.304;24.344;2024-02-26T02:06:24;6.00;;;4.10;;
12780;SDS011;6454;43.304;24.344;2024-02-26T02:08:50;7.95;;;4.40;;
12780;SDS011;6454;43.304;24.344;2024-02-26T02:11:16;7.63;;;4.50;;
12780;SDS011;6454;43.304;24.344;2024-02-26T02:13:42;6.68;;;3.58;;
12780;SDS011;6454;43.304;24.344;2024-02-26T02:16:08;10.20;;;4.90;;
12780;SDS011;6454;43.304;24.344;2024-02-26T02:18:33;7.57;;;4.35;;
12780;SDS011;6454;43.304;24.344;2024-02-26T02:21:00;7.07;;;4.07;;
12780;SDS011;6454;43.304;24.344;2024-02-26T02:23:26;6.40;;;4.47;;
12780;SDS011;6454;43.304;24.344;2024-02-26T02:25:52;7.20;;;4.97;;
12780;SDS011;6454;43.304;24.344;2024-02-26T02:28:18;5.63;;;4.30;;
12780;SDS011;6454;43.304;24.344;2024-02-26T02:30:44;8.85;;;4.80;;
12780;SDS011;6454;43.304;24.344;2024-02-26T02:33:10;7.85;;;5.13;;
12780;SDS011;6454;43.304;24.344;2024-02-26T02:35:37;7.65;;;5.45;;
12780;SDS011;6454;43.304;24.344;2024-02-26T02:38:02;7.80;;;4.45;;
12780;SDS011;6454;43.304;24.344;2024-02-26T02:40:28;5.60;;;4.50;;
12780;SDS011;6454;43.304;24.344;2024-02-26T02:42:54;6.30;;;4.50;;
12780;SDS011;6454;43.304;24.344;2024-02-26T02:45:19;8.02;;;4.32;;
12780;SDS011;6454;43.304;24.344;2024-02-26T02:47:44;9.98;;;4.53;;
12780;SDS011;6454;43.304;24.344;2024-02-26T02:50:10;11.18;;;5.18;;
12780;SDS011;6454;43.304;24.344;2024-02-26T02:52:36;8.63;;;4.80;;
12780;SDS011;6454;43.304;24.344;2024-02-26T02:55:01;8.23;;;5.57;;
12780;SDS011;6454;43.304;24.344;2024-02-26T02:57:27;7.22;;;5.20;;
12780;SDS011;6454;43.304;24.344;2024-02-26T02:59:52;10.25;;;5.43;;
12780;SDS011;6454;43.304;24.344;2024-02-26T03:02:18;8.93;;;5.32;;
12780;SDS011;6454;43.304;24.344;2024-02-26T03:04:43;9.40;;;5.07;;
12780;SDS011;6454;43.304;24.344;2024-02-26T03:07:09;9.95;;;5.53;;
12780;SDS011;6454;43.304;24.344;2024-02-26T03:09:34;10.02;;;5.30;;
12780;SDS011;6454;43.304;24.344;2024-02-26T03:12:00;8.02;;;5.20;;
12780;SDS011;6454;43.304;24.344;2024-02-26T03:14:25;8.15;;;5.10;;
12780;SDS011;6454;43.304;24.344;2024-02-26T03:16:54;8.73;;;4.90;;
12780;SDS011;6454;43.304;24.344;2024-02-26T03:19:20;6.30;;;4.28;;
12780;SDS011;6454;43.304;24.344;2024-02-26T03:21:45;8.48;;;4.45;;
12780;SDS011;6454;43.304;24.344;2024-02-26T03:24:11;9.18;;;4.85;;
12780;SDS011;6454;43.304;24.344;2024-02-26T03:26:37;8.45;;;5.63;;
12780;SDS011;6454;43.304;24.344;2024-02-26T03:29:02;8.80;;;4.97;;
12780;SDS011;6454;43.304;24.344;2024-02-26T03:31:28;8.55;;;5.03;;
12780;SDS011;6454;43.304;24.344;2024-02-26T03:33:53;8.27;;;5.13;;
12780;SDS011;6454;43.304;24.344;2024-02-26T03:36:19;8.50;;;4.82;;
12780;SDS011;6454;43.304;24.344;2024-02-26T03:38:46;7.10;;;5.15;;
12780;SDS011;6454;43.304;24.344;2024-02-26T03:41:12;9.88;;;4.97;;
12780;SDS011;6454;43.304;24.344;2024-02-26T03:43:37;7.95;;;5.25;;
12780;SDS011;6454;43.304;24.344;2024-02-26T03:46:03;9.23;;;5.30;;
12780;SDS011;6454;43.304;24.344;2024-02-26T03:48:28;8.60;;;5.13;;
12780;SDS011;6454;43.304;24.344;2024-02-26T03:50:54;8.13;;;5.15;;
12780;SDS011;6454;43.304;24.344;2024-02-26T03:53:19;9.55;;;5.47;;
12780;SDS011;6454;43.304;24.344;2024-02-26T03:55:45;9.75;;;5.50;;
12780;SDS011;6454;43.304;24.344;2024-02-26T03:58:12;9.40;;;4.82;;
12780;SDS011;6454;43.304;24.344;2024-02-26T04:00:37;6.25;;;4.82;;
12780;SDS011;6454;43.304;24.344;2024-02-26T04:03:03;8.15;;;5.05;;
12780;SDS011;6454;43.304;24.344;2024-02-26T04:05:28;7.57;;;4.47;;
12780;SDS011;6454;43.304;24.344;2024-02-26T04:07:54;9.48;;;5.28;;
12780;SDS011;6454;43.304;24.344;2024-02-26T04:10:19;10.15;;;5.38;;
12780;SDS011;6454;43.304;24.344;2024-02-26T04:12:45;8.57;;;5.25;;
12780;SDS011;6454;43.304;24.344;2024-02-26T04:15:11;9.57;;;5.60;;
12780;SDS011;6454;43.304;24.344;2024-02-26T04:17:37;9.43;;;6.05;;
12780;SDS011;6454;43.304;24.344;2024-02-26T04:20:03;13.45;;;6.43;;
12780;SDS011;6454;43.304;24.344;2024-02-26T04:22:30;8.23;;;5.47;;
12780;SDS011;6454;43.304;24.344;2024-02-26T04:24:56;9.48;;;5.30;;
12780;SDS011;6454;43.304;24.344;2024-02-26T04:27:23;6.85;;;4.70;;
12780;SDS011;6454;43.304;24.344;2024-02-26T04:29:48;7.55;;;5.30;;
12780;SDS011;6454;43.304;24.344;2024-02-26T04:32:13;8.10;;;5.22;;
12780;SDS011;6454;43.304;24.344;2024-02-26T04:34:39;5.85;;;4.35;;
12780;SDS011;6454;43.304;24.344;2024-02-26T04:37:05;7.70;;;4.60;;
12780;SDS011;6454;43.304;24.344;2024-02-26T04:39:30;7.57;;;4.93;;
12780;SDS011;6454;43.304;24.344;2024-02-26T04:41:56;8.25;;;4.63;;
12780;SDS011;6454;43.304;24.344;2024-02-26T04:44:22;8.15;;;4.97;;
12780;SDS011;6454;43.304;24.344;2024-02-26T04:46:48;8.90;;;5.32;;
12780;SDS011;6454;43.304;24.344;2024-02-26T04:49:13;9.10;;;5.00;;
12780;SDS011;6454;43.304;24.344;2024-02-26T04:51:39;6.38;;;4.88;;
12780;SDS011;6454;43.304;24.344;2024-02-26T04:54:04;12.10;;;5.03;;
12780;SDS011;6454;43.304;24.344;2024-02-26T04:56:29;5.97;;;4.50;;
12780;SDS011;6454;43.304;24.344;2024-02-26T04:58:55;7.70;;;4.55;;
12780;SDS011;6454;43.304;24.344;2024-02-26T05:01:20;10.45;;;5.18;;
12780;SDS011;6454;43.304;24.344;2024-02-26T05:03:46;9.57;;;5.47;;
12780;SDS011;6454;43.304;24.344;2024-02-26T05:06:12;7.90;;;4.85;;
12780;SDS011;6454;43.304;24.344;2024-02-26T05:08:38;7.63;;;4.82;;
12780;SDS011;6454;43.304;24.344;2024-02-26T05:11:03;7.82;;;5.00;;
12780;SDS011;6454;43.304;24.344;2024-02-26T05:13:30;10.02;;;5.30;;
12780;SDS011;6454;43.304;24.344;2024-02-26T05:15:55;9.50;;;5.70;;
12780;SDS011;6454;43.304;24.344;2024-02-26T05:18:21;9.75;;;4.72;;
12780;SDS011;6454;43.304;24.344;2024-02-26T05:20:47;7.57;;;4.85;;
12780;SDS011;6454;43.304;24.344;2024-02-26T05:23:13;9.32;;;5.32;;
12780;SDS011;6454;43.304;24.344;2024-02-26T05:25:39;7.32;;;5.15;;
12780;SDS011;6454;43.304;24.344;2024-02-26T05:28:04;7.20;;;4.95;;
12780;SDS011;6454;43.304;24.344;2024-02-26T05:30:30;8.02;;;4.88;;
12780;SDS011;6454;43.304;24.344;2024-02-26T05:32:55;8.00;;;4.63;;
12780;SDS011;6454;43.304;24.344;2024-02-26T05:35:21;8.63;;;5.22;;
12780;SDS011;6454;43.304;24.344;2024-02-26T05:37:46;8.18;;;4.88;;
12780;SDS011;6454;43.304;24.344;2024-02-26T05:40:12;7.72;;;4.57;;
12780;SDS011;6454;43.304;24.344;2024-02-26T05:42:38;8.27;;;5.43;;
12780;SDS011;6454;43.304;24.344;2024-02-26T05:45:03;8.55;;;5.50;;
12780;SDS011;6454;43.304;24.344;2024-02-26T05:47:34;7.88;;;4.72;;
12780;SDS011;6454;43.304;24.344;2024-02-26T05:50:00;18.55;;;7.93;;
12780;SDS011;6454;43.304;24.344;2024-02-26T05:52:27;9.85;;;5.20;;
12780;SDS011;6454;43.304;24.344;2024-02-26T05:54:56;9.23;;;5.82;;
12780;SDS011;6454;43.304;24.344;2024-02-26T05:57:22;5.63;;;4.57;;
12780;SDS011;6454;43.304;24.344;2024-02-26T05:59:47;8.48;;;4.90;;
12780;SDS011;6454;43.304;24.344;2024-02-26T06:02:13;7.82;;;5.00;;
12780;SDS011;6454;43.304;24.344;2024-02-26T06:04:38;8.38;;;5.50;;
12780;SDS011;6454;43.304;24.344;2024-02-26T06:07:03;7.20;;;5.03;;
12780;SDS011;6454;43.304;24.344;2024-02-26T06:09:30;8.07;;;5.20;;
12780;SDS011;6454;43.304;24.344;2024-02-26T06:11:55;7.03;;;4.30;;
12780;SDS011;6454;43.304;24.344;2024-02-26T06:14:21;9.73;;;4.70;;
12780;SDS011;6454;43.304;24.344;2024-02-26T06:16:47;8.57;;;6.35;;
12780;SDS011;6454;43.304;24.344;2024-02-26T06:19:13;12.50;;;7.35;;
12780;SDS011;6454;43.304;24.344;2024-02-26T06:21:38;12.48;;;7.18;;
12780;SDS011;6454;43.304;24.344;2024-02-26T06:24:04;10.00;;;7.45;;
12780;SDS011;6454;43.304;24.344;2024-02-26T06:26:29;11.05;;;7.63;;
12780;SDS011;6454;43.304;24.344;2024-02-26T06:28:55;13.85;;;8.07;;
12780;SDS011;6454;43.304;24.344;2024-02-26T06:31:24;9.10;;;7.13;;
12780;SDS011;6454;43.304;24.344;2024-02-26T06:33:49;8.30;;;5.85;;
12780;SDS011;6454;43.304;24.344;2024-02-26T06:36:15;7.68;;;4.97;;
12780;SDS011;6454;43.304;24.344;2024-02-26T06:38:41;9.60;;;4.72;;
12780;SDS011;6454;43.304;24.344;2024-02-26T06:41:06;9.55;;;5.47;;
12780;SDS011;6454;43.304;24.344;2024-02-26T06:43:32;10.35;;;5.93;;
12780;SDS011;6454;43.304;24.344;2024-02-26T06:46:00;9.32;;;5.10;;
12780;SDS011;6454;43.304;24.344;2024-02-26T06:48:25;6.05;;;4.43;;
12780;SDS011;6454;43.304;24.344;2024-02-26T06:50:50;7.13;;;4.55;;
12780;SDS011;6454;43.304;24.344;2024-02-26T06:53:16;7.32;;;5.18;;
12780;SDS011;6454;43.304;24.344;2024-02-26T06:55:42;7.40;;;5.13;;
12780;SDS011;6454;43.304;24.344;2024-02-26T06:58:08;8.07;;;5.15;;
12780;SDS011;6454;43.304;24.344;2024-02-26T07:00:34;12.20;;;5.43;;
12780;SDS011;6454;43.304;24.344;2024-02-26T07:03:00;10.77;;;6.05;;
12780;SDS011;6454;43.304;24.344;2024-02-26T07:05:25;14.48;;;5.68;;
12780;SDS011;6454;43.304;24.344;2024-02-26T07:07:51;15.75;;;6.22;;
12780;SDS011;6454;43.304;24.344;2024-02-26T07:10:17;8.10;;;5.55;;
12780;SDS011;6454;43.304;24.344;2024-02-26T07:12:42;16.65;;;8.38;;
12780;SDS011;6454;43.304;24.344;2024-02-26T07:15:08;15.23;;;7.53;;
12780;SDS011;6454;43.304;24.344;2024-02-26T07:17:35;11.73;;;6.65;;
12780;SDS011;6454;43.304;24.344;2024-02-26T07:20:00;14.43;;;7.70;;
12780;SDS011;6454;43.304;24.344;2024-02-26T07:22:26;14.85;;;8.50;;
12780;SDS011;6454;43.304;24.344;2024-02-26T07:24:51;16.58;;;8.65;;
12780;SDS011;6454;43.304;24.344;2024-02-26T07:27:19;19.70;;;10.02;;
12780;SDS011;6454;43.304;24.344;2024-02-26T07:29:46;19.55;;;10.63;;
12780;SDS011;6454;43.304;24.344;2024-02-26T07:32:11;18.38;;;11.05;;
12780;SDS011;6454;43.304;24.344;2024-02-26T07:34:37;17.00;;;9.63;;
12780;SDS011;6454;43.304;24.344;2024-02-26T07:37:06;14.32;;;9.27;;
12780;SDS011;6454;43.304;24.344;2024-02-26T07:39:32;12.45;;;7.68;;
12780;SDS011;6454;43.304;24.344;2024-02-26T07:41:57;12.38;;;7.80;;
12780;SDS011;6454;43.304;24.344;2024-02-26T07:44:23;16.58;;;8.25;;
12780;SDS011;6454;43.304;24.344;2024-02-26T07:46:48;14.88;;;7.93;;
12780;SDS011;6454;43.304;24.344;2024-02-26T07:49:14;11.40;;;7.15;;
12780;SDS011;6454;43.304;24.344;2024-02-26T07:51:40;11.52;;;7.47;;
12780;SDS011;6454;43.304;24.344;2024-02-26T07:54:05;14.57;;;8.18;;
12780;SDS011;6454;43.304;24.344;2024-02-26T07:56:31;11.73;;;7.63;;
12780;SDS011;6454;43.304;24.344;2024-02-26T07:58:56;13.48;;;9.27;;
12780;SDS011;6454;43.304;24.344;2024-02-26T08:01:22;14.60;;;8.73;;
12780;SDS011;6454;43.304;24.344;2024-02-26T08:03:48;15.63;;;9.30;;
12780;SDS011;6454;43.304;24.344;2024-02-26T08:06:13;14.60;;;9.45;;
12780;SDS011;6454;43.304;24.344;2024-02-26T08:08:39;20.17;;;10.93;;
12780;SDS011;6454;43.304;24.344;2024-02-26T08:11:04;15.73;;;9.65;;
12780;SDS011;6454;43.304;24.344;2024-02-26T08:13:30;20.00;;;12.50;;
12780;SDS011;6454;43.304;24.344;2024-02-26T08:15:56;19.90;;;12.63;;
12780;SDS011;6454;43.304;24.344;2024-02-26T08:18:21;23.48;;;13.40;;
12780;SDS011;6454;43.304;24.344;2024-02-26T08:20:47;20.50;;;12.13;;
12780;SDS011;6454;43.304;24.344;2024-02-26T08:23:14;22.33;;;13.32;;
12780;SDS011;6454;43.304;24.344;2024-02-26T08:25:39;27.80;;;13.50;;
12780;SDS011;6454;43.304;24.344;2024-02-26T08:28:05;23.17;;;12.25;;
12780;SDS011;6454;43.304;24.344;2024-02-26T08:30:30;24.00;;;13.00;;
12780;SDS011;6454;43.304;24.344;2024-02-26T08:32:56;26.95;;;13.55;;
12780;SDS011;6454;43.304;24.344;2024-02-26T08:35:21;23.77;;;12.45;;
12780;SDS011;6454;43.304;24.344;2024-02-26T08:37:47;25.10;;;14.35;;
12780;SDS011;6454;43.304;24.344;2024-02-26T08:40:13;20.00;;;11.60;;
12780;SDS011;6454;43.304;24.344;2024-02-26T08:42:39;13.80;;;8.30;;
12780;SDS011;6454;43.304;24.344;2024-02-26T08:45:05;20.80;;;10.38;;
12780;SDS011;6454;43.304;24.344;2024-02-26T08:47:31;18.73;;;10.68;;
12780;SDS011;6454;43.304;24.344;2024-02-26T08:49:57;19.58;;;10.13;;
12780;SDS011;6454;43.304;24.344;2024-02-26T08:52:23;22.85;;;12.23;;
12780;SDS011;6454;43.304;24.344;2024-02-26T08:54:48;17.45;;;10.48;;
12780;SDS011;6454;43.304;24.344;2024-02-26T08:57:15;17.33;;;10.20;;
12780;SDS011;6454;43.304;24.344;2024-02-26T08:59:40;12.70;;;9.38;;
12780;SDS011;6454;43.304;24.344;2024-02-26T09:02:06;14.70;;;10.05;;
12780;SDS011;6454;43.304;24.344;2024-02-26T09:04:33;15.07;;;9.73;;
12780;SDS011;6454;43.304;24.344;2024-02-26T09:06:59;15.57;;;9.80;;
12780;SDS011;6454;43.304;24.344;2024-02-26T09:09:24;16.13;;;9.85;;
12780;SDS011;6454;43.304;24.344;2024-02-26T09:11:51;15.45;;;9.80;;
12780;SDS011;6454;43.304;24.344;2024-02-26T09:14:17;15.57;;;9.70;;
12780;SDS011;6454;43.304;24.344;2024-02-26T09:16:43;13.10;;;9.02;;
12780;SDS011;6454;43.304;24.344;2024-02-26T09:19:08;12.90;;;8.75;;
12780;SDS011;6454;43.304;24.344;2024-02-26T09:21:34;15.32;;;9.48;;
12780;SDS011;6454;43.304;24.344;2024-02-26T09:23:59;15.65;;;10.13;;
12780;SDS011;6454;43.304;24.344;2024-02-26T09:26:25;14.45;;;9.40;;
12780;SDS011;6454;43.304;24.344;2024-02-26T09:28:51;15.00;;;9.18;;
12780;SDS011;6454;43.304;24.344;2024-02-26T09:31:17;16.52;;;9.80;;
12780;SDS011;6454;43.304;24.344;2024-02-26T09:33:43;16.15;;;9.68;;
12780;SDS011;6454;43.304;24.344;2024-02-26T09:36:09;15.05;;;9.07;;
12780;SDS011;6454;43.304;24.344;2024-02-26T09:38:36;16.45;;;10.05;;
12780;SDS011;6454;43.304;24.344;2024-02-26T09:41:06;16.98;;;10.20;;
12780;SDS011;6454;43.304;24.344;2024-02-26T09:43:35;13.27;;;9.02;;
12780;SDS011;6454;43.304;24.344;2024-02-26T09:46:04;17.42;;;9.50;;
12780;SDS011;6454;43.304;24.344;2024-02-26T09:48:31;18.58;;;10.48;;
12780;SDS011;6454;43.304;24.344;2024-02-26T09:50:59;16.45;;;10.75;;
12780;SDS011;6454;43.304;24.344;2024-02-26T09:53:27;16.33;;;10.57;;
12780;SDS011;6454;43.304;24.344;2024-02-26T09:55:56;19.63;;;10.70;;
12780;SDS011;6454;43.304;24.344;2024-02-26T09:58:23;16.38;;;10.75;;
12780;SDS011;6454;43.304;24.344;2024-02-26T10:00:51;14.77;;;10.23;;
12780;SDS011;6454;43.304;24.344;2024-02-26T10:03:21;15.13;;;10.15;;
12780;SDS011;6454;43.304;24.344;2024-02-26T10:05:51;15.68;;;10.48;;
12780;SDS011;6454;43.304;24.344;2024-02-26T10:08:20;16.45;;;10.70;;
12780;SDS011;6454;43.304;24.344;2024-02-26T10:10:47;17.98;;;11.18;;
12780;SDS011;6454;43.304;24.344;2024-02-26T10:13:13;14.98;;;9.82;;
12780;SDS011;6454;43.304;24.344;2024-02-26T10:15:38;17.90;;;10.23;;
12780;SDS011;6454;43.304;24.344;2024-02-26T10:18:04;17.70;;;10.73;;
12780;SDS011;6454;43.304;24.344;2024-02-26T10:20:30;18.02;;;10.95;;
12780;SDS011;6454;43.304;24.344;2024-02-26T10:22:57;20.73;;;10.73;;
12780;SDS011;6454;43.304;24.344;2024-02-26T10:25:22;19.15;;;11.60;;
12780;SDS011;6454;43.304;24.344;2024-02-26T10:27:48;17.90;;;11.27;;
12780;SDS011;6454;43.304;24.344;2024-02-26T10:30:17;17.75;;;10.98;;
12780;SDS011;6454;43.304;24.344;2024-02-26T10:32:46;18.20;;;10.80;;
12780;SDS011;6454;43.304;24.344;2024-02-26T10:35:15;18.83;;;10.93;;
12780;SDS011;6454;43.304;24.344;2024-02-26T10:37:42;18.90;;;10.90;;
12780;SDS011;6454;43.304;24.344;2024-02-26T10:40:14;19.85;;;10.98;;
12780;SDS011;6454;43.304;24.344;2024-02-26T10:42:41;19.75;;;10.93;;
12780;SDS011;6454;43.304;24.344;2024-02-26T10:45:07;21.33;;;11.10;;
12780;SDS011;6454;43.304;24.344;2024-02-26T10:47:34;15.32;;;10.23;;
12780;SDS011;6454;43.304;24.344;2024-02-26T10:50:01;15.95;;;9.50;;
12780;SDS011;6454;43.304;24.344;2024-02-26T10:52:28;15.88;;;9.77;;
12780;SDS011;6454;43.304;24.344;2024-02-26T10:55:00;15.32;;;9.82;;
12780;SDS011;6454;43.304;24.344;2024-02-26T10:57:33;17.23;;;10.65;;
12780;SDS011;6454;43.304;24.344;2024-02-26T11:00:04;16.17;;;10.63;;
12780;SDS011;6454;43.304;24.344;2024-02-26T11:02:31;16.10;;;10.68;;
12780;SDS011;6454;43.304;24.344;2024-02-26T11:05:00;15.88;;;10.15;;
12780;SDS011;6454;43.304;24.344;2024-02-26T11:07:29;16.55;;;9.88;;
12780;SDS011;6454;43.304;24.344;2024-02-26T11:09:56;17.20;;;10.35;;
12780;SDS011;6454;43.304;24.344;2024-02-26T11:12:22;15.65;;;10.85;;
12780;SDS011;6454;43.304;24.344;2024-02-26T11:14:49;16.42;;;10.98;;
12780;SDS011;6454;43.304;24.344;2024-02-26T11:17:19;16.77;;;11.07;;
12780;SDS011;6454;43.304;24.344;2024-02-26T11:19:47;16.42;;;9.88;;
12780;SDS011;6454;43.304;24.344;2024-02-26T11:22:15;16.90;;;11.63;;
12780;SDS011;6454;43.304;24.344;2024-02-26T11:24:41;19.50;;;11.63;;
12780;SDS011;6454;43.304;24.344;2024-02-26T11:27:07;16.77;;;10.32;;
12780;SDS011;6454;43.304;24.344;2024-02-26T11:29:40;16.15;;;11.15;;
12780;SDS011;6454;43.304;24.344;2024-02-26T11:32:13;18.08;;;11.48;;
12780;SDS011;6454;43.304;24.344;2024-02-26T11:34:39;16.90;;;11.05;;
12780;SDS011;6454;43.304;24.344;2024-02-26T11:37:09;21.35;;;11.45;;
12780;SDS011;6454;43.304;24.344;2024-02-26T11:39:45;16.13;;;10.88;;
12780;SDS011;6454;43.304;24.344;2024-02-26T11:42:13;17.02;;;11.30;;
12780;SDS011;6454;43.304;24.344;2024-02-26T11:44:40;17.13;;;10.50;;
12780;SDS011;6454;43.304;24.344;2024-02-26T11:47:13;17.23;;;10.48;;
12780;SDS011;6454;43.304;24.344;2024-02-26T11:49:43;15.35;;;9.65;;
12780;SDS011;6454;43.304;24.344;2024-02-26T11:52:09;14.98;;;10.13;;
12780;SDS011;6454;43.304;24.344;2024-02-26T11:54:39;15.50;;;10.02;;
12780;SDS011;6454;43.304;24.344;2024-02-26T11:59:55;18.48;;;10.85;;
12780;SDS011;6454;43.304;24.344;2024-02-26T12:02:41;18.33;;;11.85;;
12780;SDS011;6454;43.304;24.344;2024-02-26T12:05:12;17.27;;;11.05;;
12780;SDS011;6454;43.304;24.344;2024-02-26T12:07:44;17.63;;;11.25;;
12780;SDS011;6454;43.304;24.344;2024-02-26T12:10:24;21.08;;;11.55;;
12780;SDS011;6454;43.304;24.344;2024-02-26T12:12:54;20.42;;;11.88;;
12780;SDS011;6454;43.304;24.344;2024-02-26T12:15:24;22.20;;;12.45;;
12780;SDS011;6454;43.304;24.344;2024-02-26T12:17:55;19.63;;;11.70;;
12780;SDS011;6454;43.304;24.344;2024-02-26T12:20:21;17.33;;;11.20;;
12780;SDS011;6454;43.304;24.344;2024-02-26T12:22:47;17.05;;;10.57;;
12780;SDS011;6454;43.304;24.344;2024-02-26T12:25:15;20.58;;;10.77;;
12780;SDS011;6454;43.304;24.344;2024-02-26T12:27:41;18.73;;;11.10;;
12780;SDS011;6454;43.304;24.344;2024-02-26T12:30:06;19.27;;;11.05;;
12780;SDS011;6454;43.304;24.344;2024-02-26T12:32:33;17.70;;;10.82;;
12780;SDS011;6454;43.304;24.344;2024-02-26T12:34:59;17.05;;;10.85;;
12780;SDS011;6454;43.304;24.344;2024-02-26T12:37:26;18.70;;;10.82;;
12780;SDS011;6454;43.304;24.344;2024-02-26T12:39:53;16.80;;;10.48;;
12780;SDS011;6454;43.304;24.344;2024-02-26T12:42:19;19.08;;;10.73;;
12780;SDS011;6454;43.304;24.344;2024-02-26T12:44:45;16.02;;;9.77;;
12780;SDS011;6454;43.304;24.344;2024-02-26T12:47:11;17.80;;;9.82;;
12780;SDS011;6454;43.304;24.344;2024-02-26T12:49:42;15.85;;;9.98;;
12780;SDS011;6454;43.304;24.344;2024-02-26T12:52:08;17.38;;;10.65;;
12780;SDS011;6454;43.304;24.344;2024-02-26T12:54:35;15.10;;;9.68;;
12780;SDS011;6454;43.304;24.344;2024-02-26T12:57:04;15.50;;;9.70;;
12780;SDS011;6454;43.304;24.344;2024-02-26T12:59:31;15.40;;;10.25;;
12780;SDS011;6454;43.304;24.344;2024-02-26T13:01:58;14.75;;;9.48;;
12780;SDS011;6454;43.304;24.344;2024-02-26T13:04:24;16.42;;;9.80;;
12780;SDS011;6454;43.304;24.344;2024-02-26T13:06:52;16.63;;;10.55;;
12780;SDS011;6454;43.304;24.344;2024-02-26T13:09:18;16.35;;;10.10;;
12780;SDS011;6454;43.304;24.344;2024-02-26T13:11:44;15.40;;;10.30;;
12780;SDS011;6454;43.304;24.344;2024-02-26T13:14:22;18.95;;;10.88;;
12780;SDS011;6454;43.304;24.344;2024-02-26T13:16:57;14.25;;;9.65;;
12780;SDS011;6454;43.304;24.344;2024-02-26T13:19:23;17.02;;;9.38;;
12780;SDS011;6454;43.304;24.344;2024-02-26T13:21:49;15.98;;;10.93;;
12780;SDS011;6454;43.304;24.344;2024-02-26T13:24:15;15.80;;;10.30;;
12780;SDS011;6454;43.304;24.344;2024-02-26T13:26:40;19.40;;;10.98;;
12780;SDS011;6454;43.304;24.344;2024-02-26T13:29:06;19.55;;;12.27;;
12780;SDS011;6454;43.304;24.344;2024-02-26T13:31:31;18.17;;;11.88;;
12780;SDS011;6454;43.304;24.344;2024-02-26T13:34:03;17.70;;;11.75;;
12780;SDS011;6454;43.304;24.344;2024-02-26T13:36:29;20.05;;;11.57;;
12780;SDS011;6454;43.304;24.344;2024-02-26T13:38:55;18.80;;;11.15;;
12780;SDS011;6454;43.304;24.344;2024-02-26T13:41:23;20.70;;;11.63;;
12780;SDS011;6454;43.304;24.344;2024-02-26T13:43:49;20.23;;;11.63;;
12780;SDS011;6454;43.304;24.344;2024-02-26T13:46:15;21.25;;;12.00;;
12780;SDS011;6454;43.304;24.344;2024-02-26T13:48:42;17.15;;;11.93;;
12780;SDS011;6454;43.304;24.344;2024-02-26T13:51:07;17.25;;;11.70;;
12780;SDS011;6454;43.304;24.344;2024-02-26T13:53:33;18.90;;;11.27;;
12780;SDS011;6454;43.304;24.344;2024-02-26T13:55:58;19.75;;;10.65;;
12780;SDS011;6454;43.304;24.344;2024-02-26T13:58:26;17.27;;;10.98;;
12780;SDS011;6454;43.304;24.344;2024-02-26T14:00:52;18.30;;;11.30;;
12780;SDS011;6454;43.304;24.344;2024-02-26T14:03:18;20.33;;;12.27;;
12780;SDS011;6454;43.304;24.344;2024-02-26T14:05:44;18.02;;;12.40;;
12780;SDS011;6454;43.304;24.344;2024-02-26T14:08:10;18.73;;;11.63;;
12780;SDS011;6454;43.304;24.344;2024-02-26T14:10:36;16.73;;;9.90;;
12780;SDS011;6454;43.304;24.344;2024-02-26T14:13:02;18.60;;;11.48;;
12780;SDS011;6454;43.304;24.344;2024-02-26T14:15:28;23.60;;;10.73;;
12780;SDS011;6454;43.304;24.344;2024-02-26T14:17:54;17.35;;;12.13;;
12780;SDS011;6454;43.304;24.344;2024-02-26T14:20:24;18.85;;;11.20;;
12780;SDS011;6454;43.304;24.344;2024-02-26T14:22:50;17.60;;;10.50;;
12780;SDS011;6454;43.304;24.344;2024-02-26T14:25:18;16.55;;;10.82;;
12780;SDS011;6454;43.304;24.344;2024-02-26T14:27:45;16.08;;;10.20;;
12780;SDS011;6454;43.304;24.344;2024-02-26T14:30:11;18.15;;;10.93;;
12780;SDS011;6454;43.304;24.344;2024-02-26T14:32:37;21.42;;;10.80;;
12780;SDS011;6454;43.304;24.344;2024-02-26T14:35:06;16.67;;;10.57;;